createdAt,value
2019-02-08T00:02:04.073Z,97256.53
2019-02-08T00:04:33.563Z,97258.13
2019-02-08T00:07:04.063Z,97258.13
2019-02-08T00:09:38.178Z,97250.39
2019-02-08T00:12:11.329Z,97250.39
2019-02-08T00:14:41.029Z,97255.31
2019-02-08T00:17:11.960Z,97252.83
2019-02-08T00:19:43.404Z,97259.09
2019-02-08T00:22:13.485Z,97259.09
2019-02-08T00:24:44.266Z,97260.83
2019-02-08T00:27:15.597Z,97255.66
2019-02-08T00:29:46.953Z,97252.62
2019-02-08T00:32:17.881Z,97253.27
2019-02-08T00:34:52.100Z,97252.99
2019-02-08T00:37:21.714Z,97252.99
2019-02-08T00:39:51.627Z,97245.19
2019-02-08T00:42:21.328Z,97241.99
2019-02-08T00:44:50.831Z,97241.72
2019-02-08T00:47:21.078Z,97241.72
2019-02-08T00:49:52.297Z,97252.06
2019-02-08T00:52:23.337Z,97251.80
2019-02-08T00:54:54.842Z,97251.80
2019-02-08T00:57:24.306Z,97253.16
2019-02-08T00:59:55.098Z,97251.45
2019-02-08T01:02:24.932Z,97246.34
2019-02-08T01:04:55.150Z,97245.48
2019-02-08T01:07:26.703Z,97242.22
2019-02-08T01:10:01.077Z,97252.77
2019-02-08T01:12:32.065Z,97248.20
2019-02-08T01:15:03.932Z,97248.20
2019-02-08T01:17:33.604Z,97245.66
2019-02-08T01:20:03.206Z,97251.44
2019-02-08T01:22:35.271Z,97256.64
2019-02-08T01:25:05.976Z,97254.89
2019-02-08T01:27:38.773Z,97254.89
2019-02-08T01:30:12.201Z,97253.89
2019-02-08T01:32:41.769Z,97254.27
2019-02-08T01:35:11.377Z,97254.27
2019-02-08T01:37:41.387Z,97244.16
2019-02-08T01:40:15.192Z,97248.20
2019-02-08T01:42:44.653Z,97248.20
2019-02-08T01:45:17.479Z,97248.53
2019-02-08T01:47:47.503Z,97246.03
2019-02-08T01:50:20.742Z,97246.03
2019-02-08T01:52:50.139Z,97252.84
2019-02-08T01:55:22.010Z,97248.58
2019-02-08T01:57:52.226Z,97248.58
2019-02-08T02:00:39.871Z,97243.09
2019-02-08T02:03:10.278Z,97243.09
2019-02-08T02:05:40.035Z,97246.14
2019-02-08T02:08:11.130Z,97251.88
2019-02-08T02:10:44.976Z,97247.78
2019-02-08T02:13:14.466Z,97256.52
2019-02-08T02:15:44.148Z,97248.84
2019-02-08T02:18:14.266Z,97248.84
2019-02-08T02:20:44.246Z,97257.60
2019-02-08T02:23:16.137Z,97257.60
2019-02-08T02:25:47.453Z,97255.52
2019-02-08T02:28:17.655Z,97255.52
2019-02-08T02:30:47.933Z,97246.48
2019-02-08T02:33:17.678Z,97246.48
2019-02-08T02:35:47.707Z,97247.69
2019-02-08T02:38:17.400Z,97245.81
2019-02-08T02:40:47.483Z,97248.69
2019-02-08T02:43:17.302Z,97248.69
2019-02-08T02:45:47.035Z,97250.52
2019-02-08T02:48:17.067Z,97247.23
2019-02-08T02:50:46.668Z,97255.58
2019-02-08T02:53:16.272Z,97249.14
2019-02-08T02:55:46.332Z,97245.53
2019-02-08T02:58:15.971Z,97245.53
2019-02-08T03:00:50.536Z,97248.56
2019-02-08T03:03:20.281Z,97244.63
2019-02-08T03:05:51.239Z,97249.27
2019-02-08T03:08:21.792Z,97246.06
2019-02-08T03:10:53.091Z,97246.71
2019-02-08T03:13:22.804Z,97243.95
2019-02-08T03:15:52.376Z,97243.95
2019-02-08T03:18:22.068Z,97248.34
2019-02-08T03:20:52.084Z,97250.37
2019-02-08T03:23:21.855Z,97250.37
2019-02-08T03:25:51.449Z,97247.56
2019-02-08T03:28:21.460Z,97238.57
2019-02-08T03:30:53.680Z,97238.57
2019-02-08T03:33:23.404Z,97241.37
2019-02-08T03:35:53.401Z,97236.52
2019-02-08T03:38:23.980Z,97236.55
2019-02-08T03:40:54.358Z,97236.14
2019-02-08T03:43:24.208Z,97247.34
2019-02-08T03:45:54.594Z,97239.80
2019-02-08T03:48:25.029Z,97239.80
2019-02-08T03:50:54.932Z,97239.75
2019-02-08T03:53:24.539Z,97239.75
2019-02-08T03:55:58.338Z,97229.53
2019-02-08T03:58:27.678Z,97234.22
2019-02-08T04:01:16.147Z,97234.22
2019-02-08T04:03:46.378Z,97235.31
2019-02-08T04:06:16.282Z,97235.31
2019-02-08T04:08:46.364Z,97238.59
2019-02-08T04:11:16.587Z,97235.69
2019-02-08T04:13:46.350Z,97236.22
2019-02-08T04:16:16.080Z,97234.17
2019-02-08T04:18:45.997Z,97234.17
2019-02-08T04:21:15.846Z,97235.88
2019-02-08T04:23:45.493Z,97224.47
2019-02-08T04:26:15.719Z,97232.29
2019-02-08T04:28:46.075Z,97232.29
2019-02-08T04:31:18.080Z,97226.31
2019-02-08T04:33:47.968Z,97231.72
2019-02-08T04:36:17.512Z,97219.72
2019-02-08T04:38:47.342Z,97219.72
2019-02-08T04:41:17.476Z,97219.84
2019-02-08T04:43:47.332Z,97219.84
2019-02-08T04:46:16.914Z,97220.92
2019-02-08T04:48:46.567Z,97220.92
2019-02-08T04:51:18.211Z,97211.26
2019-02-08T04:53:47.836Z,97211.26
2019-02-08T04:56:20.595Z,97208.51
2019-02-08T04:58:50.545Z,97215.05
2019-02-08T05:01:20.469Z,97213.34
2019-02-08T05:03:50.290Z,97213.53
2019-02-08T05:06:22.104Z,97212.72
2019-02-08T05:08:52.009Z,97205.05
2019-02-08T05:11:22.192Z,97205.05
2019-02-08T05:13:52.239Z,97201.50
2019-02-08T05:16:21.971Z,97201.50
2019-02-08T05:18:52.005Z,97203.49
2019-02-08T05:21:23.893Z,97200.42
2019-02-08T05:23:53.592Z,97196.81
2019-02-08T05:26:23.284Z,97206.70
2019-02-08T05:28:53.246Z,97197.99
2019-02-08T05:31:23.141Z,97197.99
2019-02-08T05:33:52.977Z,97196.20
2019-02-08T05:36:23.419Z,97188.28
2019-02-08T05:38:53.113Z,97180.15
2019-02-08T05:41:25.237Z,97183.75
2019-02-08T05:43:54.875Z,97177.50
2019-02-08T05:46:24.384Z,97179.97
2019-02-08T05:48:54.184Z,97179.97
2019-02-08T05:51:24.357Z,97184.55
2019-02-08T05:53:54.085Z,97191.51
2019-02-08T05:56:23.879Z,97188.05
2019-02-08T05:58:53.657Z,97190.33
2019-02-08T06:01:25.766Z,97190.33
2019-02-08T06:03:55.522Z,97184.45
2019-02-08T06:06:25.443Z,97179.48
2019-02-08T06:08:55.045Z,97184.88
2019-02-08T06:11:25.872Z,97184.88
2019-02-08T06:13:55.589Z,97174.88
2019-02-08T06:16:25.616Z,97174.27
2019-02-08T06:18:55.802Z,97177.68
2019-02-08T06:21:25.497Z,97181.23
2019-02-08T06:24:01.750Z,97181.23
2019-02-08T06:26:31.900Z,97182.08
2019-02-08T06:29:01.962Z,97183.48
2019-02-08T06:31:32.024Z,97183.48
2019-02-08T06:34:01.537Z,97177.17
2019-02-08T06:36:31.286Z,97175.47
2019-02-08T06:39:01.303Z,97175.47
2019-02-08T06:41:30.937Z,97179.73
2019-02-08T06:44:00.742Z,97182.52
2019-02-08T06:46:33.424Z,97182.52
2019-02-08T06:49:03.119Z,97187.36
2019-02-08T06:51:34.803Z,97187.36
2019-02-08T06:54:05.218Z,97188.20
2019-02-08T06:56:53.989Z,97188.20
2019-02-08T06:59:32.093Z,97187.43
2019-02-08T07:02:23.223Z,97188.58
2019-02-08T07:05:20.975Z,97190.48
2019-02-08T07:08:08.360Z,97188.63
2019-02-08T07:11:02.870Z,97191.73
2019-02-08T07:13:45.675Z,97194.92
2019-02-08T07:16:37.980Z,97194.92
2019-02-08T07:19:17.326Z,97184.92
2019-02-08T07:22:09.728Z,97184.92
2019-02-08T07:25:01.245Z,97194.95
2019-02-08T07:27:40.567Z,97199.69
2019-02-08T07:30:26.303Z,97199.00
2019-02-08T07:33:08.821Z,97198.09
2019-02-08T07:35:55.744Z,97194.00
2019-02-08T07:38:36.040Z,97194.00
2019-02-08T07:41:35.750Z,97199.25
2019-02-08T07:44:33.414Z,97195.81
2019-02-08T07:47:14.978Z,97195.81
2019-02-08T07:50:09.640Z,97201.70
2019-02-08T07:53:01.131Z,97192.58
2019-02-08T07:55:52.441Z,97190.22
2019-02-08T07:58:47.631Z,97196.96
2019-02-08T08:01:37.734Z,97196.96
2019-02-08T08:04:35.797Z,97192.62
2019-02-08T08:07:27.138Z,97192.62
2019-02-08T08:10:03.176Z,97197.41
2019-02-08T08:12:54.893Z,97197.23
2019-02-08T08:15:41.077Z,97195.06
2019-02-08T08:18:48.168Z,97197.51
2019-02-08T08:21:51.677Z,97188.97
2019-02-08T08:24:43.092Z,97188.97
2019-02-08T08:27:28.805Z,97191.49
2019-02-08T08:30:16.228Z,97192.66
2019-02-08T08:33:10.460Z,97194.05
2019-02-08T08:35:56.986Z,97194.05
2019-02-08T08:39:00.575Z,97196.27
2019-02-08T08:42:06.661Z,97193.10
2019-02-08T08:45:26.861Z,97193.10
2019-02-08T08:48:37.984Z,97192.02
2019-02-08T08:51:50.557Z,97184.05
2019-02-08T08:54:49.598Z,97188.47
2019-02-08T08:57:42.191Z,97203.11
2019-02-08T09:01:09.701Z,97196.64
2019-02-08T09:03:54.159Z,97196.64
2019-02-08T09:07:02.621Z,97194.36
2019-02-08T09:10:07.758Z,97184.48
2019-02-08T09:13:15.028Z,97180.61
2019-02-08T09:16:34.708Z,97179.83
2019-02-08T09:19:42.888Z,97178.91
2019-02-08T09:22:39.893Z,97178.91
2019-02-08T09:25:23.692Z,97172.17
2019-02-08T09:28:20.598Z,97172.17
2019-02-08T09:31:43.488Z,97165.22
2019-02-08T09:34:46.859Z,97165.22
2019-02-08T09:37:34.695Z,97162.02
2019-02-08T09:40:54.266Z,97162.02
2019-02-08T09:44:04.091Z,97160.97
2019-02-08T09:47:27.152Z,97160.97
2019-02-08T09:50:25.242Z,97163.73
2019-02-08T09:53:22.026Z,97165.42
2019-02-08T09:56:32.211Z,97165.42
2019-02-08T09:59:53.538Z,97147.73
2019-02-08T10:02:58.598Z,97147.73
2019-02-08T10:06:05.963Z,97143.14
2019-02-08T10:09:14.768Z,97153.97
2019-02-08T10:12:19.831Z,97151.05
2019-02-08T10:15:37.221Z,97144.48
2019-02-08T10:18:46.687Z,97142.91
2019-02-08T10:21:45.691Z,97142.91
2019-02-08T10:24:38.242Z,97145.16
2019-02-08T10:28:00.613Z,97145.16
2019-02-08T10:31:01.297Z,97136.25
2019-02-08T10:34:16.220Z,97129.72
2019-02-08T10:37:35.107Z,97130.97
2019-02-08T10:40:35.964Z,97131.81
2019-02-08T10:44:00.481Z,97131.81
2019-02-08T10:47:11.888Z,97124.86
2019-02-08T10:50:16.958Z,97133.64
2019-02-08T10:53:55.725Z,97129.91
2019-02-08T10:57:15.575Z,97125.81
2019-02-08T11:00:16.612Z,97125.81
2019-02-08T11:03:30.506Z,97118.23
2019-02-08T11:09:28.480Z,97104.75
2019-02-08T11:12:52.600Z,97105.94
2019-02-08T11:15:53.095Z,97098.91
2019-02-08T11:19:02.087Z,97094.17
2019-02-08T11:21:31.563Z,97083.64
2019-02-08T11:24:04.637Z,97075.49
2019-02-08T11:26:34.210Z,97075.49
2019-02-08T11:29:21.682Z,97065.93
2019-02-08T11:31:51.124Z,97064.49
2019-02-08T11:34:20.553Z,97060.31
2019-02-08T11:36:51.163Z,97053.06
2019-02-08T11:39:20.948Z,97053.06
2019-02-08T11:41:56.551Z,97043.41
2019-02-08T11:44:31.315Z,97042.31
2019-02-08T11:47:01.016Z,97038.66
2019-02-08T11:49:32.645Z,97034.44
2019-02-08T11:52:02.384Z,97029.85
2019-02-08T11:54:31.990Z,97029.85
2019-02-08T11:57:02.078Z,97030.69
2019-02-08T11:59:31.957Z,97022.49
2019-02-08T12:02:01.688Z,97022.49
2019-02-08T12:04:34.339Z,97014.61
2019-02-08T12:07:03.965Z,97014.61
2019-02-08T12:09:34.873Z,97018.60
2019-02-08T12:12:06.210Z,97008.45
2019-02-08T12:14:35.849Z,97008.45
2019-02-08T12:17:05.595Z,97017.02
2019-02-08T12:19:35.406Z,97001.91
2019-02-08T12:22:04.963Z,97003.37
2019-02-08T12:24:34.871Z,97003.59
2019-02-08T12:27:04.484Z,96996.33
2019-02-08T12:32:08.219Z,96978.77
2019-02-08T12:34:37.883Z,96975.21
2019-02-08T12:37:07.378Z,96975.19
2019-02-08T12:39:37.226Z,96975.19
2019-02-08T12:42:10.116Z,96962.65
2019-02-08T12:44:40.057Z,96975.62
2019-02-08T12:47:09.442Z,96974.28
2019-02-08T12:49:40.294Z,96962.19
2019-02-08T12:52:09.757Z,96963.06
2019-02-08T12:54:39.242Z,96959.19
2019-02-08T12:57:08.954Z,96962.94
2019-02-08T12:59:38.342Z,96956.91
2019-02-08T13:02:07.811Z,96956.91
2019-02-08T13:04:38.035Z,96959.08
2019-02-08T13:07:08.113Z,96954.73
2019-02-08T13:09:41.084Z,96946.63
2019-02-08T13:12:14.461Z,96928.47
2019-02-08T13:14:44.294Z,96928.47
2019-02-08T13:17:14.559Z,96930.52
2019-02-08T13:19:44.605Z,96928.72
2019-02-08T13:22:16.460Z,96928.72
2019-02-08T13:24:46.405Z,96917.81
2019-02-08T13:27:20.723Z,96929.42
2019-02-08T13:29:50.236Z,96922.31
2019-02-08T13:32:19.815Z,96922.31
2019-02-08T13:34:49.318Z,96922.31
2019-02-08T13:37:22.150Z,96916.50
2019-02-08T13:39:52.095Z,96911.04
2019-02-08T13:42:21.647Z,96911.04
2019-02-08T13:44:51.098Z,96918.30
2019-02-08T13:47:20.505Z,96899.69
2019-02-08T13:49:51.612Z,96898.58
2019-02-08T13:52:23.418Z,96898.03
2019-02-08T13:54:53.095Z,96891.84
2019-02-08T13:57:24.748Z,96891.84
2019-02-08T13:59:54.576Z,96886.66
2019-02-08T14:02:25.355Z,96881.09
2019-02-08T14:04:54.849Z,96881.09
2019-02-08T14:07:24.291Z,96881.84
2019-02-08T14:09:55.308Z,96889.68
2019-02-08T14:12:27.093Z,96889.68
2019-02-08T14:14:56.953Z,96878.93
2019-02-08T14:17:26.733Z,96875.91
2019-02-08T14:19:56.204Z,96875.91
2019-02-08T14:22:26.045Z,96857.76
2019-02-08T14:24:59.268Z,96859.60
2019-02-08T14:27:29.084Z,96862.61
2019-02-08T14:29:58.555Z,96853.30
2019-02-08T14:32:30.881Z,96850.50
2019-02-08T14:35:01.592Z,96839.02
2019-02-08T14:37:31.145Z,96829.48
2019-02-08T14:40:00.784Z,96829.48
2019-02-08T14:42:31.355Z,96820.03
2019-02-08T14:45:01.449Z,96810.73
2019-02-08T14:47:35.860Z,96802.98
2019-02-08T14:50:07.451Z,96804.67
2019-02-08T14:52:38.437Z,96799.96
2019-02-08T14:55:09.309Z,96799.96
2019-02-08T14:57:39.040Z,96784.09
2019-02-08T15:00:13.682Z,96784.09
2019-02-08T15:02:43.335Z,96792.34
2019-02-08T15:05:13.271Z,96788.11
2019-02-08T15:07:43.519Z,96779.86
2019-02-08T15:10:16.955Z,96779.86
2019-02-08T15:12:46.931Z,96779.38
2019-02-08T15:15:16.440Z,96779.38
2019-02-08T15:17:46.069Z,96774.48
2019-02-08T15:20:37.438Z,96770.06
2019-02-08T15:23:10.183Z,96770.06
2019-02-08T15:25:40.577Z,96758.24
2019-02-08T15:28:10.719Z,96759.84
2019-02-08T15:30:40.274Z,96744.38
2019-02-08T15:33:10.145Z,96744.38
2019-02-08T15:35:39.532Z,96728.73
2019-02-08T15:38:09.256Z,96738.63
2019-02-08T15:40:47.066Z,96738.63
2019-02-08T15:43:20.173Z,96729.25
2019-02-08T15:46:04.600Z,96729.25
2019-02-08T15:48:34.425Z,96732.39
2019-02-08T15:51:03.896Z,96734.62
2019-02-08T15:53:38.779Z,96734.62
2019-02-08T15:56:12.019Z,96732.00
2019-02-08T15:58:45.078Z,96720.19
2019-02-08T16:01:14.855Z,96724.87
2019-02-08T16:03:44.323Z,96720.27
2019-02-08T16:06:19.436Z,96720.27
2019-02-08T16:08:49.207Z,96712.17
2019-02-08T16:11:19.104Z,96716.77
2019-02-08T16:13:48.968Z,96716.77
2019-02-08T16:16:18.384Z,96711.97
2019-02-08T16:18:47.998Z,96703.70
2019-02-08T16:21:20.205Z,96712.69
2019-02-08T16:23:49.628Z,96712.69
2019-02-08T16:26:19.138Z,96692.09
2019-02-08T16:28:50.316Z,96695.24
2019-02-08T16:31:20.507Z,96689.59
2019-02-08T16:33:57.061Z,96685.85
2019-02-08T16:36:26.613Z,96676.17
2019-02-08T16:38:56.458Z,96689.59
2019-02-08T16:41:26.278Z,96689.59
2019-02-08T16:43:56.819Z,96673.64
2019-02-08T16:46:26.276Z,96670.22
2019-02-08T16:48:58.291Z,96680.00
2019-02-08T16:51:27.813Z,96676.27
2019-02-08T16:53:57.664Z,96674.44
2019-02-08T16:56:34.106Z,96682.50
2019-02-08T16:59:03.597Z,96678.06
2019-02-08T17:01:33.692Z,96678.06
2019-02-08T17:04:03.289Z,96673.67
2019-02-08T17:06:33.163Z,96667.91
2019-02-08T17:09:03.541Z,96664.89
2019-02-08T17:11:33.329Z,96664.89
2019-02-08T17:14:02.740Z,96664.65
2019-02-08T17:16:32.228Z,96646.83
2019-02-08T17:19:03.757Z,96639.85
2019-02-08T17:21:33.214Z,96639.85
2019-02-08T17:24:06.257Z,96636.34
2019-02-08T17:26:36.074Z,96636.34
2019-02-08T17:29:05.566Z,96621.55
2019-02-08T17:31:37.261Z,96613.73
2019-02-08T17:34:07.026Z,96618.52
2019-02-08T17:36:36.606Z,96612.77
2019-02-08T17:39:08.181Z,96604.19
2019-02-08T17:41:37.606Z,96604.19
2019-02-08T17:44:07.582Z,96598.99
2019-02-08T17:46:37.078Z,96590.27
2019-02-08T17:49:08.694Z,96590.27
2019-02-08T17:51:38.415Z,96581.38
2019-02-08T17:54:08.153Z,96590.15
2019-02-08T17:56:37.837Z,96581.22
2019-02-08T17:59:07.356Z,96581.22
2019-02-08T18:01:37.145Z,96577.76
2019-02-08T18:04:07.142Z,96580.91
2019-02-08T18:06:37.672Z,96579.45
2019-02-08T18:09:09.297Z,96564.53
2019-02-08T18:11:38.882Z,96573.53
2019-02-08T18:14:08.750Z,96565.14
2019-02-08T18:16:38.306Z,96565.14
2019-02-08T18:19:08.049Z,96579.77
2019-02-08T18:21:38.872Z,96563.92
2019-02-08T18:24:08.698Z,96571.31
2019-02-08T18:26:41.379Z,96562.55
2019-02-08T18:29:11.007Z,96562.55
2019-02-08T18:31:40.635Z,96570.63
2019-02-08T18:34:16.142Z,96570.04
2019-02-08T18:36:46.310Z,96567.66
2019-02-08T18:39:16.200Z,96567.66
2019-02-08T18:41:46.259Z,96559.15
2019-02-08T18:44:15.728Z,96568.41
2019-02-08T18:46:45.387Z,96551.27
2019-02-08T18:49:14.878Z,96551.27
2019-02-08T18:51:44.470Z,96539.01
2019-02-08T18:54:14.007Z,96538.65
2019-02-08T18:56:43.766Z,96538.65
2019-02-08T18:59:13.369Z,96524.33
2019-02-08T19:01:43.061Z,96524.33
2019-02-08T19:04:12.611Z,96525.41
2019-02-08T19:06:44.139Z,96516.47
2019-02-08T19:09:14.127Z,96515.02
2019-02-08T19:11:45.354Z,96516.03
2019-02-08T19:14:18.101Z,96502.53
2019-02-08T19:16:51.113Z,96500.84
2019-02-08T19:19:20.708Z,96490.56
2019-02-08T19:21:53.340Z,96489.78
2019-02-08T19:26:49.163Z,96481.02
2019-02-08T19:29:20.235Z,96480.96
2019-02-08T19:31:50.030Z,96480.96
2019-02-08T19:34:20.924Z,96480.00
2019-02-08T19:36:53.003Z,96476.13
2019-02-08T19:39:24.812Z,96474.57
2019-02-08T19:41:55.009Z,96479.89
2019-02-08T19:44:25.592Z,96479.89
2019-02-08T19:46:55.214Z,96467.62
2019-02-08T19:49:27.161Z,96459.05
2019-02-08T19:52:00.489Z,96459.05
2019-02-08T19:54:30.242Z,96451.92
2019-02-08T19:56:59.824Z,96446.78
2019-02-08T19:59:30.627Z,96449.94
2019-02-08T20:02:00.441Z,96449.94
2019-02-08T20:04:30.147Z,96440.88
2019-02-08T20:07:01.526Z,96453.55
2019-02-08T20:09:32.466Z,96453.55
2019-02-08T20:12:02.095Z,96453.25
2019-02-08T20:14:32.075Z,96448.12
2019-02-08T20:17:01.660Z,96450.42
2019-02-08T20:19:34.097Z,96431.77
2019-02-08T20:22:03.659Z,96431.77
2019-02-08T20:24:33.202Z,96425.41
2019-02-08T20:27:05.859Z,96425.41
2019-02-08T20:29:39.130Z,96416.94
2019-02-08T20:32:08.943Z,96416.94
2019-02-08T20:34:38.633Z,96413.80
2019-02-08T20:37:11.661Z,96413.80
2019-02-08T20:39:42.617Z,96408.11
2019-02-08T20:42:22.527Z,96408.11
2019-02-08T20:44:55.334Z,96402.53
2019-02-08T20:47:24.777Z,96405.13
2019-02-08T20:49:54.732Z,96389.81
2019-02-08T20:52:24.467Z,96389.81
2019-02-08T20:54:56.607Z,96378.07
2019-02-08T20:57:26.890Z,96378.07
2019-02-08T20:59:59.167Z,96379.53
2019-02-08T21:02:28.748Z,96374.57
2019-02-08T21:04:59.313Z,96358.74
2019-02-08T21:07:29.095Z,96352.80
2019-02-08T21:09:59.062Z,96349.17
2019-02-08T21:12:28.616Z,96334.44
2019-02-08T21:15:00.627Z,96334.44
2019-02-08T21:17:30.167Z,96330.45
2019-02-08T21:20:05.329Z,96320.17
2019-02-08T21:22:35.456Z,96332.42
2019-02-08T21:25:05.230Z,96319.55
2019-02-08T21:27:34.900Z,96327.11
2019-02-08T21:30:07.603Z,96318.80
2019-02-08T21:32:39.549Z,96318.80
2019-02-08T21:35:10.170Z,96309.89
2019-02-08T21:37:40.242Z,96309.89
2019-02-08T21:40:11.095Z,96294.34
2019-02-08T21:42:41.018Z,96283.42
2019-02-08T21:45:13.744Z,96277.48
2019-02-08T21:47:43.840Z,96277.48
2019-02-08T21:50:19.169Z,96270.83
2019-02-08T21:52:49.837Z,96263.41
2019-02-08T21:55:26.417Z,96263.41
2019-02-08T21:58:02.649Z,96264.45
2019-02-08T22:00:33.293Z,96256.27
2019-02-08T22:03:07.596Z,96243.37
2019-02-08T22:06:03.053Z,96251.58
2019-02-08T22:08:33.091Z,96255.71
2019-02-08T22:11:03.465Z,96261.43
2019-02-08T22:13:33.079Z,96261.43
2019-02-08T22:16:06.465Z,96255.78
2019-02-08T22:18:36.239Z,96260.27
2019-02-08T22:21:06.167Z,96240.95
2019-02-08T22:23:36.225Z,96240.95
2019-02-08T22:26:09.207Z,96248.44
2019-02-08T22:28:39.175Z,96235.91
2019-02-08T22:31:09.112Z,96231.34
2019-02-08T22:33:38.682Z,96226.81
2019-02-08T22:36:09.080Z,96226.81
2019-02-08T22:38:38.676Z,96231.64
2019-02-08T22:41:08.694Z,96231.64
2019-02-08T22:43:38.086Z,96220.43
2019-02-08T22:46:10.164Z,96224.34
2019-02-08T22:48:39.794Z,96217.64
2019-02-08T22:51:10.232Z,96221.19
2019-02-08T22:53:39.825Z,96221.19
2019-02-08T22:56:09.837Z,96220.52
2019-02-08T22:58:39.582Z,96216.84
2019-02-08T23:01:30.167Z,96207.75
2019-02-08T23:04:05.536Z,96207.75
2019-02-08T23:06:35.317Z,96204.11
2019-02-08T23:09:08.212Z,96191.72
2019-02-08T23:11:39.500Z,96191.72
2019-02-08T23:14:09.402Z,96184.91
2019-02-08T23:16:39.342Z,96167.47
2019-02-08T23:19:09.526Z,96164.53
2019-02-08T23:21:39.276Z,96164.53
2019-02-08T23:24:09.154Z,96150.03
2019-02-08T23:26:39.121Z,96139.83
2019-02-08T23:29:10.346Z,96128.50
2019-02-08T23:31:40.464Z,96139.59
2019-02-08T23:34:12.697Z,96148.56
2019-02-08T23:36:42.413Z,96149.27
2019-02-08T23:39:17.467Z,96141.91
2019-02-08T23:41:47.207Z,96141.91
2019-02-08T23:44:19.998Z,96152.95
2019-02-08T23:46:53.074Z,96153.44
2019-02-08T23:49:22.499Z,96145.94
2019-02-08T23:51:54.229Z,96145.94
2019-02-08T23:54:24.086Z,96137.78
2019-02-08T23:56:57.318Z,96135.88
2019-02-08T23:59:27.133Z,96135.88
